createdAt,value
2019-02-14T00:00:42.140Z,21.60
2019-02-14T00:03:09.925Z,23.23
2019-02-14T00:05:37.630Z,19.03
2019-02-14T00:08:05.370Z,14.00
2019-02-14T00:10:33.092Z,16.97
2019-02-14T00:13:00.849Z,13.87
2019-02-14T00:15:28.557Z,15.53
2019-02-14T00:17:56.291Z,16.77
2019-02-14T00:20:24.061Z,16.33
2019-02-14T00:22:51.741Z,17.17
2019-02-14T00:25:19.439Z,17.77
2019-02-14T00:27:47.174Z,21.93
2019-02-14T00:30:14.881Z,24.30
2019-02-14T00:32:42.601Z,19.17
2019-02-14T00:35:10.334Z,17.17
2019-02-14T00:37:38.089Z,16.77
2019-02-14T00:40:05.862Z,16.10
2019-02-14T00:42:33.615Z,16.27
2019-02-14T00:45:01.377Z,13.60
2019-02-14T00:47:29.109Z,15.57
2019-02-14T00:49:56.848Z,17.27
2019-02-14T00:52:24.469Z,16.30
2019-02-14T00:54:52.201Z,19.80
2019-02-14T00:57:19.948Z,20.40
2019-02-14T00:59:47.676Z,24.13
2019-02-14T01:02:15.427Z,18.27
2019-02-14T01:04:43.189Z,13.53
2019-02-14T01:07:10.917Z,25.97
2019-02-14T01:09:38.643Z,26.13
2019-02-14T01:12:07.092Z,19.07
2019-02-14T01:14:34.848Z,23.20
2019-02-14T01:17:02.587Z,17.93
2019-02-14T01:19:30.333Z,18.93
2019-02-14T01:21:58.045Z,22.23
2019-02-14T01:24:25.790Z,23.57
2019-02-14T01:26:53.513Z,21.80
2019-02-14T01:29:21.276Z,16.73
2019-02-14T01:31:48.989Z,17.80
2019-02-14T01:34:16.754Z,17.80
2019-02-14T01:36:44.469Z,19.47
2019-02-14T01:39:12.211Z,18.60
2019-02-14T01:41:39.937Z,27.57
2019-02-14T01:44:07.691Z,16.97
2019-02-14T01:46:35.421Z,17.43
2019-02-14T01:49:03.233Z,22.27
2019-02-14T01:51:31.009Z,15.57
2019-02-14T01:53:58.745Z,19.00
2019-02-14T01:56:26.481Z,17.13
2019-02-14T01:58:54.193Z,16.53
2019-02-14T02:01:21.924Z,19.63
2019-02-14T02:03:49.753Z,21.73
2019-02-14T02:06:17.492Z,21.90
2019-02-14T02:08:45.270Z,14.90
2019-02-14T02:11:32.369Z,18.70
2019-02-14T02:14:00.182Z,17.40
2019-02-14T02:16:27.945Z,12.30
2019-02-14T02:18:55.653Z,14.43
2019-02-14T02:21:23.372Z,12.57
2019-02-14T02:23:51.092Z,15.93
2019-02-14T02:26:18.897Z,18.37
2019-02-14T02:28:46.609Z,18.53
2019-02-14T02:31:16.194Z,22.80
2019-02-14T02:33:44.141Z,21.23
2019-02-14T02:36:11.861Z,20.00
2019-02-14T02:38:39.574Z,17.73
2019-02-14T02:41:07.337Z,19.80
2019-02-14T02:43:35.009Z,22.60
2019-02-14T02:46:02.737Z,23.27
2019-02-14T02:48:30.443Z,23.80
2019-02-14T02:50:58.177Z,22.33
2019-02-14T02:53:25.881Z,19.93
2019-02-14T02:55:53.635Z,23.33
2019-02-14T02:58:21.357Z,20.43
2019-02-14T03:00:49.093Z,25.63
2019-02-14T03:03:16.805Z,17.10
2019-02-14T03:05:44.654Z,20.70
2019-02-14T03:08:12.374Z,16.43
2019-02-14T03:10:40.118Z,16.27
2019-02-14T03:13:07.830Z,15.17
2019-02-14T03:15:35.552Z,15.37
2019-02-14T03:18:03.291Z,18.47
2019-02-14T03:20:30.989Z,15.03
2019-02-14T03:22:58.730Z,14.40
2019-02-14T03:25:26.437Z,18.83
2019-02-14T03:27:54.179Z,18.97
2019-02-14T03:30:21.917Z,15.40
2019-02-14T03:32:49.665Z,14.33
2019-02-14T03:35:17.373Z,18.13
2019-02-14T03:37:45.099Z,18.20
2019-02-14T03:40:12.857Z,17.20
2019-02-14T03:42:40.600Z,18.93
2019-02-14T03:45:11.401Z,12.33
2019-02-14T03:47:39.126Z,18.93
2019-02-14T03:50:07.237Z,15.73
2019-02-14T03:52:35.001Z,16.50
2019-02-14T03:55:02.739Z,17.67
2019-02-14T03:57:30.496Z,14.93
2019-02-14T03:59:58.218Z,12.63
2019-02-14T04:02:25.966Z,8.53
2019-02-14T04:04:53.762Z,13.87
2019-02-14T04:07:21.497Z,10.90
2019-02-14T04:09:49.229Z,9.47
2019-02-14T04:12:16.954Z,13.00
2019-02-14T04:14:44.675Z,12.47
2019-02-14T04:17:12.421Z,11.60
2019-02-14T04:19:40.159Z,19.83
2019-02-14T04:22:07.877Z,14.83
2019-02-14T04:24:35.615Z,10.93
2019-02-14T04:27:03.337Z,17.50
2019-02-14T04:29:31.038Z,16.40
2019-02-14T04:31:58.766Z,13.60
2019-02-14T04:34:26.473Z,12.83
2019-02-14T04:36:55.811Z,13.37
2019-02-14T04:39:23.741Z,11.60
2019-02-14T04:41:51.470Z,12.13
2019-02-14T04:44:19.201Z,12.07
2019-02-14T04:46:46.909Z,18.30
2019-02-14T04:49:14.740Z,11.30
2019-02-14T04:51:42.367Z,18.87
2019-02-14T04:54:10.092Z,16.90
2019-02-14T04:56:37.811Z,13.57
2019-02-14T04:59:05.547Z,11.10
2019-02-14T05:01:33.265Z,13.13
2019-02-14T05:04:01.072Z,11.33
2019-02-14T05:06:28.798Z,15.30
2019-02-14T05:08:56.533Z,15.40
2019-02-14T05:11:24.249Z,11.57
2019-02-14T05:13:51.979Z,16.70
2019-02-14T05:16:19.693Z,14.07
2019-02-14T05:18:47.433Z,14.73
2019-02-14T05:21:15.154Z,17.27
2019-02-14T05:23:42.879Z,15.40
2019-02-14T05:26:10.589Z,17.23
2019-02-14T05:28:38.345Z,21.50
2019-02-14T05:31:05.998Z,13.83
2019-02-14T05:33:33.770Z,14.07
2019-02-14T05:36:01.513Z,16.33
2019-02-14T05:38:29.278Z,14.90
2019-02-14T05:40:56.999Z,11.70
2019-02-14T05:43:24.722Z,16.83
2019-02-14T05:45:52.458Z,14.50
2019-02-14T05:48:20.198Z,15.70
2019-02-14T05:50:47.925Z,18.60
2019-02-14T05:53:15.637Z,19.37
2019-02-14T05:55:43.378Z,24.53
2019-02-14T05:58:11.097Z,23.90
2019-02-14T06:00:38.831Z,30.43
2019-02-14T06:03:06.617Z,29.07
2019-02-14T06:05:34.373Z,23.03
2019-02-14T06:08:02.095Z,40.17
2019-02-14T06:10:29.832Z,58.10
2019-02-14T06:12:57.723Z,105.23
2019-02-14T06:15:25.525Z,81.70
2019-02-14T06:17:53.264Z,64.93
2019-02-14T06:20:21.017Z,65.27
2019-02-14T06:22:48.738Z,68.37
2019-02-14T06:25:16.536Z,44.73
2019-02-14T06:27:44.269Z,37.57
2019-02-14T06:30:12.531Z,35.47
2019-02-14T06:32:40.262Z,34.10
2019-02-14T06:35:08.886Z,33.87
2019-02-14T06:37:36.593Z,31.40
2019-02-14T06:40:05.146Z,27.37
2019-02-14T06:42:32.925Z,19.13
2019-02-14T06:45:00.686Z,23.93
2019-02-14T06:47:31.308Z,19.73
2019-02-14T06:49:59.340Z,21.10
2019-02-14T06:52:27.086Z,20.60
2019-02-14T06:54:55.293Z,27.40
2019-02-14T06:57:23.004Z,21.80
2019-02-14T06:59:50.737Z,21.23
2019-02-14T07:02:18.473Z,25.53
2019-02-14T07:04:46.305Z,26.45
2019-02-14T07:07:18.582Z,25.13
2019-02-14T07:09:43.554Z,39.87
2019-02-14T07:12:11.305Z,47.87
2019-02-14T07:14:39.046Z,49.80
2019-02-14T07:17:06.789Z,50.53
2019-02-14T07:19:34.516Z,41.00
2019-02-14T07:22:02.341Z,40.93
2019-02-14T07:24:30.087Z,43.33
2019-02-14T07:26:57.831Z,47.50
2019-02-14T07:29:25.523Z,39.60
2019-02-14T07:31:53.271Z,47.33
2019-02-14T07:34:20.996Z,54.00
2019-02-14T07:36:48.727Z,66.97
2019-02-14T07:39:16.445Z,206.80
2019-02-14T07:41:44.161Z,83.23
2019-02-14T07:44:11.905Z,150.67
2019-02-14T07:46:39.661Z,177.27
2019-02-14T07:49:07.384Z,129.50
2019-02-14T07:51:35.145Z,120.77
2019-02-14T07:54:02.976Z,98.30
2019-02-14T07:56:30.682Z,54.53
2019-02-14T07:58:58.445Z,46.17
2019-02-14T08:01:26.213Z,34.83
2019-02-14T08:03:54.507Z,26.27
2019-02-14T08:06:22.249Z,33.53
2019-02-14T08:08:49.970Z,25.23
2019-02-14T08:11:17.665Z,30.30
2019-02-14T08:13:45.409Z,27.27
2019-02-14T08:16:13.141Z,31.47
2019-02-14T08:18:40.954Z,25.23
2019-02-14T08:21:08.682Z,27.90
2019-02-14T08:23:36.412Z,27.00
2019-02-14T08:26:10.632Z,32.40
2019-02-14T08:28:33.670Z,26.93
2019-02-14T08:31:01.383Z,26.07
2019-02-14T08:33:29.138Z,26.30
2019-02-14T08:35:56.881Z,19.17
2019-02-14T08:38:24.624Z,37.00
2019-02-14T08:40:52.345Z,29.10
2019-02-14T08:43:20.109Z,26.07
2019-02-14T08:45:47.830Z,26.47
2019-02-14T08:48:15.569Z,23.67
2019-02-14T08:50:43.285Z,23.40
2019-02-14T08:53:11.029Z,17.23
2019-02-14T08:55:38.772Z,19.27
2019-02-14T08:58:06.499Z,15.23
2019-02-14T09:00:34.220Z,10.43
2019-02-14T09:03:01.941Z,17.30
2019-02-14T09:05:29.749Z,9.73
2019-02-14T09:07:57.504Z,15.20
2019-02-14T09:10:25.205Z,11.53
2019-02-14T09:12:52.937Z,8.20
2019-02-14T09:15:20.669Z,12.23
2019-02-14T09:17:48.389Z,13.67
2019-02-14T09:20:16.162Z,8.33
2019-02-14T09:22:43.890Z,12.50
2019-02-14T09:25:11.614Z,10.30
2019-02-14T09:27:39.349Z,7.93
2019-02-14T09:30:07.161Z,5.90
2019-02-14T09:32:34.974Z,7.20
2019-02-14T09:35:02.746Z,8.60
2019-02-14T09:37:30.472Z,12.37
2019-02-14T09:39:58.207Z,4.67
2019-02-14T09:42:25.936Z,8.30
2019-02-14T09:44:53.679Z,5.33
2019-02-14T09:47:21.406Z,7.40
2019-02-14T09:49:49.123Z,7.87
2019-02-14T09:52:16.836Z,5.63
2019-02-14T09:54:44.571Z,6.73
2019-02-14T09:57:12.286Z,6.63
2019-02-14T09:59:40.105Z,5.53
2019-02-14T10:02:07.812Z,12.27
2019-02-14T10:04:35.532Z,13.57
2019-02-14T10:07:03.319Z,7.27
2019-02-14T10:09:31.106Z,5.30
2019-02-14T10:11:58.773Z,8.33
2019-02-14T10:14:26.501Z,5.43
2019-02-14T10:16:54.221Z,13.53
2019-02-14T10:19:21.945Z,4.47
2019-02-14T10:21:49.650Z,4.93
2019-02-14T10:24:17.386Z,7.43
2019-02-14T10:26:45.127Z,3.90
2019-02-14T10:29:12.869Z,6.43
2019-02-14T10:31:40.569Z,5.30
2019-02-14T10:34:08.320Z,5.00
2019-02-14T10:36:36.030Z,5.00
2019-02-14T10:39:04.682Z,5.00
2019-02-14T10:41:32.419Z,4.93
2019-02-14T10:44:00.152Z,3.70
2019-02-14T10:46:27.894Z,5.75
2019-02-14T10:48:55.605Z,4.00
2019-02-14T10:51:23.343Z,6.23
2019-02-14T10:53:51.744Z,5.47
2019-02-14T10:56:19.519Z,7.67
2019-02-14T10:58:47.260Z,8.45
2019-02-14T11:01:15.049Z,4.20
2019-02-14T11:03:43.029Z,7.83
2019-02-14T11:06:10.871Z,7.80
2019-02-14T11:08:38.640Z,8.70
2019-02-14T11:11:06.373Z,6.27
2019-02-14T11:13:34.111Z,4.43
2019-02-14T11:16:01.849Z,5.07
2019-02-14T11:18:29.561Z,8.47
2019-02-14T11:20:57.305Z,8.47
2019-02-14T11:23:25.021Z,4.97
2019-02-14T11:25:52.763Z,4.17
2019-02-14T11:28:20.525Z,8.77
2019-02-14T11:30:48.256Z,7.30
2019-02-14T11:33:15.981Z,6.67
2019-02-14T11:35:43.707Z,4.80
2019-02-14T11:38:11.479Z,7.17
2019-02-14T11:40:39.212Z,5.87
2019-02-14T11:43:06.961Z,3.83
2019-02-14T11:45:34.709Z,5.63
2019-02-14T11:48:02.419Z,6.27
2019-02-14T11:50:30.250Z,6.17
2019-02-14T11:52:58.157Z,7.97
2019-02-14T11:55:25.876Z,5.63
2019-02-14T11:57:53.642Z,6.93
2019-02-14T12:00:22.037Z,3.83
2019-02-14T12:02:55.576Z,6.07
2019-02-14T12:05:19.324Z,6.53
2019-02-14T12:07:47.104Z,5.97
2019-02-14T12:10:14.814Z,7.40
2019-02-14T12:12:42.606Z,4.97
2019-02-14T12:15:10.362Z,4.40
2019-02-14T12:17:38.118Z,7.13
2019-02-14T12:20:12.243Z,5.37
2019-02-14T12:22:35.808Z,5.50
2019-02-14T12:25:04.101Z,4.37
2019-02-14T12:27:31.810Z,4.83
2019-02-14T12:29:59.563Z,5.33
2019-02-14T12:32:27.267Z,3.47
2019-02-14T12:34:55.017Z,4.70
2019-02-14T12:37:22.757Z,5.90
2019-02-14T12:39:50.501Z,5.77
2019-02-14T12:42:18.222Z,5.70
2019-02-14T12:44:45.973Z,4.70
2019-02-14T12:47:13.665Z,4.70
2019-02-14T12:49:41.401Z,5.03
2019-02-14T12:52:09.164Z,8.83
2019-02-14T12:54:36.889Z,6.53
2019-02-14T12:57:04.619Z,3.83
2019-02-14T12:59:32.361Z,5.60
2019-02-14T13:02:00.087Z,6.90
2019-02-14T13:04:27.794Z,3.80
2019-02-14T13:06:55.536Z,6.30
2019-02-14T13:09:23.317Z,6.07
2019-02-14T13:11:51.057Z,5.13
2019-02-14T13:14:18.765Z,5.03
2019-02-14T13:16:46.497Z,5.03
2019-02-14T13:19:14.240Z,4.00
2019-02-14T13:21:42.029Z,6.43
2019-02-14T13:24:09.783Z,4.83
2019-02-14T13:26:37.474Z,2.83
2019-02-14T13:29:05.177Z,2.87
2019-02-14T13:31:32.892Z,3.80
2019-02-14T13:34:00.589Z,4.27
2019-02-14T13:36:28.316Z,4.70
2019-02-14T13:38:56.021Z,3.87
2019-02-14T13:41:30.889Z,5.67
2019-02-14T13:43:53.353Z,6.27
2019-02-14T13:46:21.077Z,2.87
2019-02-14T13:48:48.809Z,5.93
2019-02-14T13:51:16.569Z,4.17
2019-02-14T13:53:44.341Z,4.50
2019-02-14T13:56:12.072Z,3.77
2019-02-14T13:58:39.785Z,7.60
2019-02-14T14:01:07.503Z,10.20
2019-02-14T14:03:35.273Z,6.13
2019-02-14T14:06:03.437Z,3.30
2019-02-14T14:08:31.136Z,4.83
2019-02-14T14:10:58.933Z,6.77
2019-02-14T14:13:26.637Z,4.07
2019-02-14T14:15:54.373Z,4.23
2019-02-14T14:18:22.131Z,7.33
2019-02-14T14:20:49.963Z,8.27
2019-02-14T14:23:19.802Z,4.40
2019-02-14T14:25:47.247Z,4.62
2019-02-14T14:28:14.981Z,6.33
2019-02-14T14:30:42.718Z,4.50
2019-02-14T14:33:10.489Z,2.40
2019-02-14T14:35:38.223Z,4.23
2019-02-14T14:38:05.923Z,12.00
2019-02-14T14:40:33.653Z,5.27
2019-02-14T14:43:21.028Z,3.23
2019-02-14T14:46:10.728Z,3.17
2019-02-14T14:48:40.540Z,17.60
2019-02-14T14:51:08.301Z,5.07
2019-02-14T14:53:36.091Z,8.77
2019-02-14T14:56:03.849Z,9.13
2019-02-14T14:58:31.602Z,5.60
2019-02-14T15:00:59.359Z,3.87
2019-02-14T15:03:27.104Z,3.77
2019-02-14T15:05:56.036Z,5.97
2019-02-14T15:08:23.832Z,6.67
2019-02-14T15:10:51.626Z,5.00
2019-02-14T15:13:19.365Z,5.87
2019-02-14T15:15:47.107Z,5.70
2019-02-14T15:18:14.862Z,6.37
2019-02-14T15:20:42.618Z,4.20
2019-02-14T15:23:10.333Z,7.07
2019-02-14T15:25:38.072Z,4.80
2019-02-14T15:28:05.794Z,4.80
2019-02-14T15:30:33.599Z,6.57
2019-02-14T15:33:01.371Z,4.63
2019-02-14T15:35:29.101Z,6.17
2019-02-14T15:37:56.837Z,6.00
2019-02-14T15:40:24.582Z,4.87
2019-02-14T15:42:52.515Z,8.83
2019-02-14T15:45:20.221Z,10.10
2019-02-14T15:47:47.945Z,6.50
2019-02-14T15:50:15.762Z,3.73
2019-02-14T15:52:43.473Z,4.60
2019-02-14T15:55:11.218Z,6.93
2019-02-14T15:57:40.458Z,5.00
2019-02-14T16:00:10.741Z,9.63
2019-02-14T16:02:38.537Z,6.53
2019-02-14T16:05:06.526Z,5.13
2019-02-14T16:07:34.309Z,7.40
2019-02-14T16:10:05.418Z,6.70
2019-02-14T16:12:31.659Z,7.83
2019-02-14T16:14:59.405Z,5.73
2019-02-14T16:17:27.146Z,4.83
2019-02-14T16:19:55.941Z,3.00
2019-02-14T16:22:30.109Z,6.30
2019-02-14T16:24:54.058Z,3.10
2019-02-14T16:27:22.590Z,4.87
2019-02-14T16:29:51.289Z,4.67
2019-02-14T16:32:19.049Z,6.30
2019-02-14T16:34:46.761Z,3.13
2019-02-14T16:37:14.520Z,8.30
2019-02-14T16:39:51.335Z,4.50
2019-02-14T16:42:11.769Z,3.37
2019-02-14T16:44:39.516Z,6.57
2019-02-14T16:47:07.225Z,6.90
2019-02-14T16:49:34.985Z,3.87
2019-02-14T16:52:02.732Z,3.70
2019-02-14T16:54:30.525Z,7.73
2019-02-14T16:56:58.251Z,6.53
2019-02-14T16:59:26.358Z,5.20
2019-02-14T17:01:54.061Z,3.53
2019-02-14T17:04:21.821Z,7.47
2019-02-14T17:06:49.542Z,6.40
2019-02-14T17:09:17.449Z,8.10
2019-02-14T17:11:45.125Z,10.03
2019-02-14T17:14:12.878Z,11.67
2019-02-14T17:16:40.737Z,8.73
2019-02-14T17:19:08.475Z,9.60
2019-02-14T17:21:36.242Z,8.20
2019-02-14T17:24:04.097Z,5.13
2019-02-14T17:26:31.832Z,7.87
2019-02-14T17:28:59.636Z,6.50
2019-02-14T17:31:27.738Z,11.53
2019-02-14T17:33:55.787Z,10.10
2019-02-14T17:36:23.667Z,7.13
2019-02-14T17:38:51.634Z,9.60
2019-02-14T17:41:19.365Z,13.93
2019-02-14T17:43:47.113Z,12.80
2019-02-14T17:46:14.829Z,7.30
2019-02-14T17:48:42.575Z,6.43
2019-02-14T17:51:10.282Z,17.97
2019-02-14T17:53:38.041Z,20.43
2019-02-14T17:56:05.775Z,17.33
2019-02-14T17:58:33.504Z,13.97
2019-02-14T18:01:01.245Z,27.50
2019-02-14T18:03:29.660Z,33.30
2019-02-14T18:05:59.667Z,27.42
2019-02-14T18:08:27.502Z,20.93
2019-02-14T18:10:55.357Z,22.80
2019-02-14T18:13:23.005Z,26.50
2019-02-14T18:15:50.741Z,30.00
2019-02-14T18:18:18.470Z,15.70
2019-02-14T18:20:51.912Z,22.63
2019-02-14T18:23:20.227Z,20.37
2019-02-14T18:25:47.961Z,18.83
2019-02-14T18:28:15.719Z,20.33
2019-02-14T18:30:43.521Z,16.43
2019-02-14T18:33:11.287Z,13.90
2019-02-14T18:35:39.085Z,22.53
2019-02-14T18:38:06.813Z,22.00
2019-02-14T18:40:34.565Z,17.60
2019-02-14T18:43:02.286Z,10.23
2019-02-14T18:45:30.129Z,9.20
2019-02-14T18:47:57.853Z,15.77
2019-02-14T18:50:25.578Z,13.37
2019-02-14T18:52:53.353Z,13.93
2019-02-14T18:55:21.077Z,17.33
2019-02-14T18:57:48.813Z,18.50
2019-02-14T19:00:16.575Z,19.57
2019-02-14T19:02:44.372Z,18.27
2019-02-14T19:05:12.148Z,11.63
2019-02-14T19:07:39.925Z,15.43
2019-02-14T19:10:09.196Z,11.50
2019-02-14T19:12:37.042Z,12.00
2019-02-14T19:15:04.913Z,9.33
2019-02-14T19:17:32.745Z,18.37
2019-02-14T19:20:00.449Z,31.73
2019-02-14T19:22:28.229Z,19.37
2019-02-14T19:24:55.984Z,23.00
2019-02-14T19:27:23.701Z,13.70
2019-02-14T19:29:51.433Z,13.40
2019-02-14T19:32:19.173Z,19.43
2019-02-14T19:34:46.894Z,12.73
2019-02-14T19:37:14.629Z,13.77
2019-02-14T19:39:42.351Z,23.60
2019-02-14T19:42:10.123Z,16.27
2019-02-14T19:44:37.851Z,22.43
2019-02-14T19:47:05.624Z,11.60
2019-02-14T19:49:33.642Z,21.17
2019-02-14T19:52:01.447Z,10.63
2019-02-14T19:54:29.153Z,12.40
2019-02-14T19:56:56.899Z,17.10
2019-02-14T19:59:24.583Z,61.77
2019-02-14T20:01:52.308Z,21.33
2019-02-14T20:04:20.038Z,21.60
2019-02-14T20:06:47.741Z,11.20
2019-02-14T20:09:15.460Z,19.43
2019-02-14T20:11:43.243Z,19.37
2019-02-14T20:14:10.962Z,9.53
2019-02-14T20:16:38.690Z,20.00
2019-02-14T20:19:06.385Z,10.63
2019-02-14T20:21:34.127Z,13.90
2019-02-14T20:24:01.849Z,11.03
2019-02-14T20:26:29.648Z,7.40
2019-02-14T20:28:57.345Z,7.70
2019-02-14T20:31:26.442Z,11.67
2019-02-14T20:33:54.125Z,6.73
2019-02-14T20:36:21.855Z,12.07
2019-02-14T20:38:49.618Z,6.47
2019-02-14T20:41:17.354Z,9.87
2019-02-14T20:43:45.093Z,13.03
2019-02-14T20:46:12.824Z,9.87
2019-02-14T20:48:40.563Z,11.93
2019-02-14T20:51:08.337Z,12.37
2019-02-14T20:53:36.114Z,8.20
2019-02-14T20:56:03.851Z,13.73
2019-02-14T20:58:31.596Z,33.13
2019-02-14T21:00:59.762Z,14.00
2019-02-14T21:03:27.515Z,13.90
2019-02-14T21:05:55.237Z,11.60
2019-02-14T21:08:22.987Z,12.13
2019-02-14T21:10:50.729Z,9.93
2019-02-14T21:13:18.525Z,16.90
2019-02-14T21:15:46.231Z,9.80
2019-02-14T21:18:14.015Z,10.23
2019-02-14T21:20:41.730Z,8.50
2019-02-14T21:23:09.617Z,7.20
2019-02-14T21:25:37.389Z,7.93
2019-02-14T21:28:05.109Z,7.93
2019-02-14T21:30:35.640Z,7.87
2019-02-14T21:33:02.456Z,11.43
2019-02-14T21:35:30.353Z,9.40
2019-02-14T21:37:58.127Z,20.87
2019-02-14T21:40:25.923Z,12.27
2019-02-14T21:42:53.743Z,10.20
2019-02-14T21:45:21.614Z,10.23
2019-02-14T21:47:49.349Z,10.73
2019-02-14T21:50:17.130Z,6.97
2019-02-14T21:52:45.003Z,5.83
2019-02-14T21:55:12.929Z,7.63
2019-02-14T21:57:40.686Z,5.23
2019-02-14T22:00:11.340Z,7.17
2019-02-14T22:02:39.161Z,7.77
2019-02-14T22:05:07.389Z,10.17
2019-02-14T22:07:35.423Z,6.40
2019-02-14T22:10:03.479Z,8.30
2019-02-14T22:12:39.747Z,8.43
2019-02-14T22:15:00.938Z,5.90
2019-02-14T22:17:28.665Z,5.40
2019-02-14T22:19:56.730Z,6.43
2019-02-14T22:22:24.471Z,6.13
2019-02-14T22:24:52.217Z,6.13
2019-02-14T22:27:21.018Z,6.63
2019-02-14T22:29:48.760Z,6.67
2019-02-14T22:32:19.137Z,5.73
2019-02-14T22:34:47.277Z,5.80
2019-02-14T22:37:15.027Z,5.20
2019-02-14T22:39:42.736Z,8.07
2019-02-14T22:42:10.753Z,6.37
2019-02-14T22:44:38.489Z,4.53
2019-02-14T22:47:06.218Z,5.87
2019-02-14T22:49:33.960Z,5.30
2019-02-14T22:52:01.693Z,6.83
2019-02-14T22:54:29.427Z,6.70
2019-02-14T22:56:57.221Z,6.33
2019-02-14T22:59:25.074Z,8.13
2019-02-14T23:01:52.913Z,6.80
2019-02-14T23:04:20.604Z,6.90
2019-02-14T23:06:48.338Z,4.10
2019-02-14T23:09:16.050Z,6.43
2019-02-14T23:11:43.777Z,4.00
2019-02-14T23:14:11.521Z,4.13
2019-02-14T23:16:39.243Z,3.70
2019-02-14T23:19:06.965Z,5.47
2019-02-14T23:21:34.733Z,4.57
2019-02-14T23:24:02.453Z,3.07
2019-02-14T23:26:30.232Z,4.60
2019-02-14T23:28:57.968Z,5.77
2019-02-14T23:31:25.684Z,4.77
2019-02-14T23:33:53.401Z,3.90
2019-02-14T23:36:21.141Z,3.70
2019-02-14T23:38:48.853Z,3.67
2019-02-14T23:41:16.593Z,3.73
2019-02-14T23:43:44.342Z,2.83
2019-02-14T23:46:12.077Z,7.07
2019-02-14T23:48:39.799Z,5.33
2019-02-14T23:51:07.534Z,4.73
2019-02-14T23:53:35.243Z,5.50
2019-02-14T23:56:02.973Z,3.03
2019-02-14T23:58:30.697Z,3.47
